Time;durP1;ratioP1;P1;durP2;ratioP2;P2;SDS_P1;SDS_P2;PMS_P1;PMS_P2;Temp;Humidity;BMP_temperature;BMP_pressure;BME280_temperature;BME280_humidity;BME280_pressure;Samples;Min_cycle;Max_cycle;Signal;HPM_P1;HPM_P2
2022/09/13 00:01:57;;;;;;;5.60;3.97;;;;;;;;;;5072210;28;20444;-76
2022/09/13 00:04:23;;;;;;;6.53;4.07;;;;;;;;;;5087643;28;20469;-76
2022/09/13 00:06:50;;;;;;;5.80;5.27;;;;;;;;;;5082269;28;20435;-76
2022/09/13 00:09:16;;;;;;;4.30;3.80;;;;;;;;;;5071800;28;21020;-76
2022/09/13 00:11:43;;;;;;;4.83;4.43;;;;;;;;;;5073433;28;21006;-76
2022/09/13 00:14:09;;;;;;;5.23;4.33;;;;;;;;;;5063787;28;20515;-76
2022/09/13 00:16:36;;;;;;;4.60;3.90;;;;;;;;;;5082103;28;20974;-76
2022/09/13 00:19:03;;;;;;;4.40;4.00;;;;;;;;;;5061399;28;20492;-75
2022/09/13 00:21:29;;;;;;;3.50;3.20;;;;;;;;;;5081455;28;20443;-75
2022/09/13 00:23:56;;;;;;;4.97;3.47;;;;;;;;;;5054913;28;20525;-76
2022/09/13 00:26:24;;;;;;;4.80;4.40;;;;;;;;;;5072783;28;20421;-75
2022/09/13 00:28:51;;;;;;;4.37;3.97;;;;;;;;;;5067899;28;20442;-75
2022/09/13 00:31:19;;;;;;;5.93;4.13;;;;;;;;;;5045962;28;20883;-75
2022/09/13 00:33:45;;;;;;;7.10;4.43;;;;;;;;;;5077052;28;20946;-76
2022/09/13 00:36:14;;;;;;;9.60;4.10;;;;;;;;;;5074787;28;20789;-76
2022/09/13 00:38:41;;;;;;;9.73;5.00;;;;;;;;;;5091788;28;20933;-76
2022/09/13 00:41:09;;;;;;;4.50;4.10;;;;;;;;;;5081424;28;20476;-75
2022/09/13 00:43:55;;;;;;;11.00;4.77;;;;;;;;;;5069189;28;21027;-76
2022/09/13 00:46:21;;;;;;;5.47;4.60;;;;;;;;;;5064047;28;20435;-76
2022/09/13 00:48:49;;;;;;;4.80;4.20;;;;;;;;;;5091320;28;20439;-75
2022/09/13 00:51:16;;;;;;;4.37;3.80;;;;;;;;;;5074496;28;20464;-76
2022/09/13 00:53:47;;;;;;;10.30;4.33;;;;;;;;;;5082806;28;20436;-76
2022/09/13 00:56:20;;;;;;;6.50;4.20;;;;;;;;;;5074534;28;20796;-76
2022/09/13 00:59:01;;;;;;;4.53;3.93;;;;;;;;;;5071043;28;20963;-76
2022/09/13 01:01:32;;;;;;;5.17;4.30;;;;;;;;;;5070820;28;20476;-76
2022/09/13 01:03:59;;;;;;;4.97;3.87;;;;;;;;;;5070688;28;20469;-76
2022/09/13 01:06:32;;;;;;;10.20;5.33;;;;;;;;;;5078636;28;20817;-76
2022/09/13 01:09:02;;;;;;;5.17;4.40;;;;;;;;;;5075293;28;20435;-76
2022/09/13 01:11:41;;;;;;;4.90;4.37;;;;;;;;;;5034816;28;20454;-76
2022/09/13 01:14:08;;;;;;;4.00;3.57;;;;;;;;;;5065260;28;20432;-76
2022/09/13 01:16:34;;;;;;;6.97;5.73;;;;;;;;;;5067045;28;22294;-76
2022/09/13 01:19:01;;;;;;;4.77;4.07;;;;;;;;;;5069711;28;20451;-76
2022/09/13 01:21:46;;;;;;;5.33;3.80;;;;;;;;;;5070503;28;20456;-76
2022/09/13 01:24:16;;;;;;;5.10;3.90;;;;;;;;;;5061352;28;20472;-76
2022/09/13 01:27:01;;;;;;;4.07;3.67;;;;;;;;;;5088282;28;20518;-75
2022/09/13 01:29:31;;;;;;;7.83;4.80;;;;;;;;;;5078407;28;20424;-75
2022/09/13 01:32:11;;;;;;;4.70;3.90;;;;;;;;;;5049595;28;20460;-76
2022/09/13 01:34:50;;;;;;;5.30;4.17;;;;;;;;;;5052607;28;20471;-76
2022/09/13 01:37:36;;;;;;;6.53;5.80;;;;;;;;;;5048484;28;20445;-76
2022/09/13 01:40:04;;;;;;;6.30;5.70;;;;;;;;;;5075477;28;20429;-76
2022/09/13 01:42:30;;;;;;;8.97;5.90;;;;;;;;;;5068219;28;20464;-76
2022/09/13 01:44:57;;;;;;;7.93;5.40;;;;;;;;;;5064805;28;20952;-76
2022/09/13 01:47:35;;;;;;;8.80;5.17;;;;;;;;;;5073723;28;20960;-76
2022/09/13 01:50:06;;;;;;;5.27;4.77;;;;;;;;;;5073208;28;20854;-75
2022/09/13 01:52:36;;;;;;;10.13;5.37;;;;;;;;;;5067683;28;20538;-75
2022/09/13 01:55:10;;;;;;;6.87;5.20;;;;;;;;;;5083550;28;20444;-75
2022/09/13 01:57:52;;;;;;;6.67;4.50;;;;;;;;;;5077999;28;20462;-76
2022/09/13 02:00:19;;;;;;;7.70;5.90;;;;;;;;;;5067722;28;20491;-76
2022/09/13 02:02:52;;;;;;;9.80;5.20;;;;;;;;;;5069801;28;20467;-76
2022/09/13 02:05:18;;;;;;;4.83;4.30;;;;;;;;;;5064833;28;20443;-75
2022/09/13 02:07:49;;;;;;;12.03;5.53;;;;;;;;;;5075754;28;20446;-76
2022/09/13 02:10:19;;;;;;;5.50;4.83;;;;;;;;;;5075863;28;20463;-75
2022/09/13 02:12:47;;;;;;;5.60;5.20;;;;;;;;;;5065928;28;20535;-76
2022/09/13 02:15:20;;;;;;;9.57;5.77;;;;;;;;;;5072459;28;20444;-76
2022/09/13 02:17:53;;;;;;;6.33;5.73;;;;;;;;;;5068724;28;20441;-76
2022/09/13 02:20:23;;;;;;;7.67;5.30;;;;;;;;;;5060276;28;20473;-76
2022/09/13 02:22:53;;;;;;;6.30;5.30;;;;;;;;;;5061910;28;20468;-76
2022/09/13 02:25:21;;;;;;;7.83;4.90;;;;;;;;;;5066338;28;20994;-76
2022/09/13 02:27:50;;;;;;;6.10;4.33;;;;;;;;;;5066881;28;20826;-76
2022/09/13 02:30:18;;;;;;;5.07;4.60;;;;;;;;;;5056609;28;20482;-75
2022/09/13 02:32:48;;;;;;;7.47;5.07;;;;;;;;;;5068586;28;20450;-76
2022/09/13 02:35:20;;;;;;;6.23;5.63;;;;;;;;;;5064437;28;20516;-75
2022/09/13 02:37:59;;;;;;;5.50;4.53;;;;;;;;;;5078932;28;20454;-76
2022/09/13 02:40:27;;;;;;;5.57;5.07;;;;;;;;;;5066680;28;20988;-75
2022/09/13 02:42:57;;;;;;;5.43;4.90;;;;;;;;;;5074541;28;20456;-75
2022/09/13 02:45:39;;;;;;;6.63;5.27;;;;;;;;;;5068616;28;21812;-75
2022/09/13 02:48:09;;;;;;;6.07;5.50;;;;;;;;;;5077363;28;20440;-76
2022/09/13 02:50:42;;;;;;;4.40;4.00;;;;;;;;;;5066907;28;20471;-75
2022/09/13 02:53:19;;;;;;;6.67;5.00;;;;;;;;;;5075237;28;20487;-75
2022/09/13 02:56:04;;;;;;;6.80;4.53;;;;;;;;;;5071568;28;20451;-76
2022/09/13 02:58:37;;;;;;;7.30;4.43;;;;;;;;;;5069647;28;20458;-76
2022/09/13 03:01:04;;;;;;;9.50;5.00;;;;;;;;;;5069550;28;20460;-73
2022/09/13 03:03:30;;;;;;;6.07;5.40;;;;;;;;;;5081116;28;20451;-73
2022/09/13 03:05:58;;;;;;;6.53;5.00;;;;;;;;;;5075057;28;20437;-73
2022/09/13 03:08:24;;;;;;;4.93;4.50;;;;;;;;;;5056016;28;20439;-73
2022/09/13 03:10:54;;;;;;;5.23;3.83;;;;;;;;;;5072243;28;20812;-73
2022/09/13 03:13:56;;;;;;;4.97;4.50;;;;;;;;;;5074639;28;20796;-73
2022/09/13 03:16:34;;;;;;;4.53;4.13;;;;;;;;;;4969628;28;20432;-74
2022/09/13 03:19:00;;;;;;;7.70;3.90;;;;;;;;;;5070298;28;20456;-74
2022/09/13 03:21:46;;;;;;;4.87;4.47;;;;;;;;;;5071300;28;20452;-73
2022/09/13 03:24:12;;;;;;;4.83;4.23;;;;;;;;;;5091107;28;20474;-73
2022/09/13 03:26:57;;;;;;;4.93;4.53;;;;;;;;;;5072548;28;20432;-73
2022/09/13 03:29:34;;;;;;;4.87;4.47;;;;;;;;;;5077812;28;20442;-73
2022/09/13 03:32:07;;;;;;;6.70;4.20;;;;;;;;;;5071100;28;20464;-73
2022/09/13 03:34:58;;;;;;;4.47;3.60;;;;;;;;;;5088155;28;20427;-73
2022/09/13 03:37:33;;;;;;;4.30;3.60;;;;;;;;;;5069816;28;20451;-73
2022/09/13 03:40:04;;;;;;;5.83;4.33;;;;;;;;;;5075296;28;20452;-73
2022/09/13 03:42:43;;;;;;;5.10;4.37;;;;;;;;;;5076932;28;20443;-73
2022/09/13 03:45:10;;;;;;;11.83;4.40;;;;;;;;;;5067116;28;20476;-73
2022/09/13 03:47:39;;;;;;;4.13;3.80;;;;;;;;;;5078515;28;20539;-73
2022/09/13 03:50:06;;;;;;;7.00;4.30;;;;;;;;;;5076873;28;20436;-73
2022/09/13 03:52:34;;;;;;;4.97;4.40;;;;;;;;;;5078470;28;20966;-73
2022/09/13 03:55:01;;;;;;;4.50;4.10;;;;;;;;;;5073759;28;20471;-73
2022/09/13 03:57:28;;;;;;;6.67;5.37;;;;;;;;;;5084842;28;20432;-73
2022/09/13 03:59:55;;;;;;;4.47;4.07;;;;;;;;;;5067389;28;20463;-73
2022/09/13 04:02:23;;;;;;;7.27;5.10;;;;;;;;;;5078119;28;20433;-73
2022/09/13 04:04:50;;;;;;;8.40;4.60;;;;;;;;;;5079721;28;20547;-73
2022/09/13 04:07:21;;;;;;;4.90;4.50;;;;;;;;;;5060067;28;20438;-74
2022/09/13 04:09:47;;;;;;;8.07;4.43;;;;;;;;;;5087167;28;20422;-73
2022/09/13 04:12:14;;;;;;;6.13;4.60;;;;;;;;;;5072245;28;20459;-76
2022/09/13 04:14:42;;;;;;;6.90;4.27;;;;;;;;;;5068056;28;20441;-76
2022/09/13 04:17:09;;;;;;;4.90;4.50;;;;;;;;;;5053234;28;20445;-75
2022/09/13 04:19:35;;;;;;;7.90;5.40;;;;;;;;;;5077438;28;20998;-76
2022/09/13 04:22:02;;;;;;;7.30;4.50;;;;;;;;;;5061929;28;20907;-75
2022/09/13 04:24:30;;;;;;;5.03;4.57;;;;;;;;;;5075871;28;20465;-76
2022/09/13 04:26:56;;;;;;;6.60;6.00;;;;;;;;;;5051062;28;20503;-76
2022/09/13 04:29:24;;;;;;;5.83;4.73;;;;;;;;;;5084976;28;20429;-75
2022/09/13 04:31:52;;;;;;;5.50;5.00;;;;;;;;;;5074915;28;20463;-76
2022/09/13 04:34:18;;;;;;;4.70;4.30;;;;;;;;;;5065821;28;20446;-75
2022/09/13 04:36:46;;;;;;;9.80;3.80;;;;;;;;;;5072917;28;20433;-75
2022/09/13 04:39:15;;;;;;;5.53;4.60;;;;;;;;;;5069153;28;21025;-76
2022/09/13 04:41:44;;;;;;;7.40;3.87;;;;;;;;;;5068407;28;20491;-76
2022/09/13 04:44:11;;;;;;;7.27;4.10;;;;;;;;;;5077824;28;20643;-76
2022/09/13 04:46:38;;;;;;;4.70;4.20;;;;;;;;;;5080619;28;20433;-75
2022/09/13 04:49:04;;;;;;;4.83;4.03;;;;;;;;;;5069385;28;20448;-76
2022/09/13 04:51:31;;;;;;;4.63;4.20;;;;;;;;;;5054520;28;20992;-76
2022/09/13 04:53:59;;;;;;;5.80;4.33;;;;;;;;;;5069170;28;20455;-76
2022/09/13 04:56:26;;;;;;;4.33;3.33;;;;;;;;;;5075483;28;20447;-76
2022/09/13 04:58:53;;;;;;;5.13;4.27;;;;;;;;;;5067769;28;20933;-76
2022/09/13 05:01:21;;;;;;;7.40;3.83;;;;;;;;;;5059185;28;20487;-76
2022/09/13 05:03:52;;;;;;;5.57;4.47;;;;;;;;;;5075696;28;20522;-76
2022/09/13 05:06:19;;;;;;;5.03;4.63;;;;;;;;;;5062058;28;20436;-76
2022/09/13 05:08:51;;;;;;;4.60;3.90;;;;;;;;;;5068652;28;20450;-75
2022/09/13 05:11:18;;;;;;;6.07;4.10;;;;;;;;;;5057905;28;20531;-75
2022/09/13 05:13:51;;;;;;;5.23;4.57;;;;;;;;;;5068140;28;20437;-75
2022/09/13 05:16:18;;;;;;;4.97;3.93;;;;;;;;;;5055230;28;20434;-76
2022/09/13 05:18:44;;;;;;;8.00;4.03;;;;;;;;;;5067741;28;20432;-75
2022/09/13 05:21:11;;;;;;;4.37;3.50;;;;;;;;;;5066574;28;20483;-75
2022/09/13 05:23:37;;;;;;;5.10;4.40;;;;;;;;;;5065414;28;20459;-76
2022/09/13 05:26:04;;;;;;;6.20;4.30;;;;;;;;;;5059900;28;20444;-75
2022/09/13 05:28:32;;;;;;;8.03;3.87;;;;;;;;;;5061385;28;20441;-76
2022/09/13 05:31:00;;;;;;;4.50;3.43;;;;;;;;;;5075109;28;20964;-75
2022/09/13 05:33:28;;;;;;;9.13;4.73;;;;;;;;;;5080821;28;20467;-75
2022/09/13 05:35:54;;;;;;;5.27;4.73;;;;;;;;;;5068105;28;20959;-75
2022/09/13 05:38:21;;;;;;;5.07;4.53;;;;;;;;;;5082715;28;20444;-75
2022/09/13 05:40:53;;;;;;;4.70;4.20;;;;;;;;;;5069924;28;20986;-75
2022/09/13 05:43:20;;;;;;;4.50;4.10;;;;;;;;;;5057802;28;20483;-75
2022/09/13 05:45:47;;;;;;;4.77;4.30;;;;;;;;;;5077166;28;20431;-75
2022/09/13 05:48:13;;;;;;;5.90;5.23;;;;;;;;;;5068534;28;20441;-76
2022/09/13 05:50:40;;;;;;;4.70;4.30;;;;;;;;;;5051591;28;20460;-75
2022/09/13 05:53:24;;;;;;;6.37;4.70;;;;;;;;;;5071024;28;20433;-75
2022/09/13 05:55:50;;;;;;;9.57;4.00;;;;;;;;;;5065874;28;20464;-73
2022/09/13 05:58:17;;;;;;;4.07;3.73;;;;;;;;;;5070281;28;20436;-74
2022/09/13 06:00:43;;;;;;;7.53;4.30;;;;;;;;;;5068217;28;20460;-74
2022/09/13 06:03:10;;;;;;;4.80;4.27;;;;;;;;;;5066680;28;20451;-74
2022/09/13 06:05:36;;;;;;;4.30;3.90;;;;;;;;;;5057789;28;20464;-74
2022/09/13 06:08:03;;;;;;;5.17;4.50;;;;;;;;;;5068360;28;20428;-74
2022/09/13 06:10:29;;;;;;;8.77;5.00;;;;;;;;;;5065595;28;20449;-74
2022/09/13 06:12:56;;;;;;;6.67;5.63;;;;;;;;;;5052281;28;20445;-75
2022/09/13 06:15:22;;;;;;;5.57;4.63;;;;;;;;;;5076777;28;20465;-74
2022/09/13 06:17:49;;;;;;;4.93;4.43;;;;;;;;;;5052979;28;20440;-74
2022/09/13 06:20:15;;;;;;;5.20;4.80;;;;;;;;;;5072654;28;20474;-74
2022/09/13 06:22:42;;;;;;;8.60;5.77;;;;;;;;;;5078592;28;20892;-75
2022/09/13 06:25:08;;;;;;;6.27;5.67;;;;;;;;;;5079614;28;20459;-74
2022/09/13 06:27:35;;;;;;;4.50;4.10;;;;;;;;;;5056963;28;20936;-75
2022/09/13 06:30:01;;;;;;;5.80;5.30;;;;;;;;;;5079111;28;20443;-74
2022/09/13 06:32:28;;;;;;;6.93;4.83;;;;;;;;;;5065836;28;20448;-74
2022/09/13 06:34:54;;;;;;;6.40;5.23;;;;;;;;;;5071585;28;20451;-74
2022/09/13 06:37:21;;;;;;;9.13;5.60;;;;;;;;;;5071895;28;20987;-74
2022/09/13 06:39:48;;;;;;;5.47;4.90;;;;;;;;;;5072356;28;20464;-74
2022/09/13 06:42:14;;;;;;;5.37;4.87;;;;;;;;;;5082436;28;20456;-74
2022/09/13 06:44:44;;;;;;;7.27;6.20;;;;;;;;;;5053545;28;20551;-74
2022/09/13 06:47:11;;;;;;;8.40;6.47;;;;;;;;;;5071480;28;20847;-74
2022/09/13 06:49:38;;;;;;;7.17;5.90;;;;;;;;;;5078554;28;20424;-74
2022/09/13 06:52:05;;;;;;;7.67;6.90;;;;;;;;;;5057944;28;20460;-74
2022/09/13 06:54:31;;;;;;;6.97;6.27;;;;;;;;;;5071189;28;20444;-74
2022/09/13 06:56:57;;;;;;;11.17;8.47;;;;;;;;;;5070882;28;20820;-74
2022/09/13 06:59:24;;;;;;;7.40;6.70;;;;;;;;;;5054312;28;20436;-74
2022/09/13 07:01:50;;;;;;;9.33;7.70;;;;;;;;;;5076876;28;20468;-74
2022/09/13 07:04:18;;;;;;;11.13;7.80;;;;;;;;;;5085573;28;20799;-74
2022/09/13 07:06:46;;;;;;;8.53;7.10;;;;;;;;;;5054614;28;20467;-74
2022/09/13 07:09:14;;;;;;;8.23;7.43;;;;;;;;;;5081859;28;20439;-74
2022/09/13 07:11:41;;;;;;;9.60;8.43;;;;;;;;;;5083081;28;21002;-75
2022/09/13 07:14:08;;;;;;;8.60;7.80;;;;;;;;;;5087013;28;20436;-75
2022/09/13 07:16:36;;;;;;;11.50;10.40;;;;;;;;;;5083906;28;20439;-75
2022/09/13 07:19:04;;;;;;;13.80;10.00;;;;;;;;;;5072741;28;20953;-75
2022/09/13 07:21:31;;;;;;;10.70;9.60;;;;;;;;;;5082888;28;20533;-75
2022/09/13 07:23:58;;;;;;;12.70;10.83;;;;;;;;;;5059358;28;20478;-75
2022/09/13 07:26:28;;;;;;;10.50;9.30;;;;;;;;;;5077797;28;20845;-74
2022/09/13 07:28:56;;;;;;;11.30;9.87;;;;;;;;;;5066275;28;20766;-75
2022/09/13 07:31:24;;;;;;;10.47;9.30;;;;;;;;;;5074239;28;20448;-74
2022/09/13 07:33:54;;;;;;;12.47;9.50;;;;;;;;;;5079041;28;20433;-74
2022/09/13 07:36:21;;;;;;;12.77;11.47;;;;;;;;;;5070806;28;20440;-76
2022/09/13 07:38:48;;;;;;;13.47;10.93;;;;;;;;;;5072978;28;20444;-74
2022/09/13 07:41:17;;;;;;;12.03;10.83;;;;;;;;;;5069248;28;20825;-75
2022/09/13 07:43:43;;;;;;;12.33;9.70;;;;;;;;;;5078710;28;20518;-74
2022/09/13 07:46:14;;;;;;;10.17;9.20;;;;;;;;;;5057088;28;20959;-76
2022/09/13 07:48:41;;;;;;;9.70;8.67;;;;;;;;;;5072193;28;20428;-75
2022/09/13 07:51:09;;;;;;;10.83;9.10;;;;;;;;;;5059952;28;20474;-74
2022/09/13 07:53:36;;;;;;;14.33;11.67;;;;;;;;;;5060869;28;21084;-74
2022/09/13 07:56:10;;;;;;;13.70;11.67;;;;;;;;;;5067963;28;20446;-75
2022/09/13 07:58:37;;;;;;;15.90;10.70;;;;;;;;;;5082870;28;20791;-75
2022/09/13 08:01:04;;;;;;;13.30;11.63;;;;;;;;;;5088829;28;20457;-74
2022/09/13 08:03:31;;;;;;;12.67;11.37;;;;;;;;;;5078190;28;20515;-75
2022/09/13 08:05:57;;;;;;;10.73;9.60;;;;;;;;;;5079360;28;20457;-75
2022/09/13 08:08:24;;;;;;;11.67;10.47;;;;;;;;;;5068597;28;20431;-74
2022/09/13 08:10:50;;;;;;;10.33;9.33;;;;;;;;;;5081909;28;20444;-75
2022/09/13 08:13:17;;;;;;;11.80;10.47;;;;;;;;;;5074266;28;20451;-75
2022/09/13 08:15:43;;;;;;;12.97;10.77;;;;;;;;;;5073281;28;20433;-74
2022/09/13 08:18:10;;;;;;;10.17;9.23;;;;;;;;;;5073116;28;20794;-74
2022/09/13 08:20:37;;;;;;;12.13;10.93;;;;;;;;;;5071573;28;21321;-75
2022/09/13 08:23:05;;;;;;;10.23;9.23;;;;;;;;;;5071842;28;20435;-75
2022/09/13 08:25:35;;;;;;;10.93;9.37;;;;;;;;;;5071904;28;20464;-75
2022/09/13 08:28:05;;;;;;;9.90;9.00;;;;;;;;;;5058055;28;20439;-76
2022/09/13 08:30:34;;;;;;;11.13;9.47;;;;;;;;;;5071392;28;20478;-75
2022/09/13 08:33:04;;;;;;;11.40;9.27;;;;;;;;;;5074934;28;20436;-75
2022/09/13 08:35:31;;;;;;;11.90;9.13;;;;;;;;;;5058887;28;20447;-75
2022/09/13 08:37:58;;;;;;;11.03;9.90;;;;;;;;;;5072443;28;20436;-74
2022/09/13 08:40:30;;;;;;;10.73;8.77;;;;;;;;;;5084512;28;20459;-74
2022/09/13 08:43:15;;;;;;;9.87;8.70;;;;;;;;;;5059013;28;20435;-75
2022/09/13 08:45:47;;;;;;;9.63;8.40;;;;;;;;;;5072552;28;20464;-75
2022/09/13 08:48:17;;;;;;;10.07;8.30;;;;;;;;;;5077740;28;20410;-75
2022/09/13 08:50:44;;;;;;;11.77;9.57;;;;;;;;;;5083966;28;20497;-76
2022/09/13 08:53:22;;;;;;;9.17;8.10;;;;;;;;;;5071261;28;20432;-75
2022/09/13 08:56:05;;;;;;;10.40;9.40;;;;;;;;;;5071118;28;21029;-74
2022/09/13 08:58:51;;;;;;;13.13;9.17;;;;;;;;;;5071175;28;20447;-75
2022/09/13 09:01:18;;;;;;;10.40;9.40;;;;;;;;;;5057527;28;20991;-75
2022/09/13 09:03:51;;;;;;;8.37;7.67;;;;;;;;;;5084919;28;20500;-75
2022/09/13 09:06:18;;;;;;;8.60;7.80;;;;;;;;;;5059853;28;20448;-74
2022/09/13 09:08:47;;;;;;;7.87;7.07;;;;;;;;;;5071240;28;20974;-75
2022/09/13 09:11:34;;;;;;;7.97;7.20;;;;;;;;;;5070942;28;20445;-75
2022/09/13 09:14:13;;;;;;;8.23;7.50;;;;;;;;;;5057222;28;20425;-75
2022/09/13 09:16:47;;;;;;;9.73;7.77;;;;;;;;;;5071040;28;20443;-75
2022/09/13 09:19:17;;;;;;;8.33;7.50;;;;;;;;;;5042044;28;20494;-75
2022/09/13 09:21:45;;;;;;;7.20;6.50;;;;;;;;;;5072643;28;20441;-75
2022/09/13 09:24:17;;;;;;;7.07;6.30;;;;;;;;;;5071729;28;20420;-75
2022/09/13 09:26:44;;;;;;;7.53;6.60;;;;;;;;;;5073548;28;20423;-75
2022/09/13 09:29:14;;;;;;;7.37;6.47;;;;;;;;;;5071821;28;20428;-75
2022/09/13 09:31:50;;;;;;;7.87;7.13;;;;;;;;;;5067782;28;20543;-75
2022/09/13 09:34:16;;;;;;;6.53;5.93;;;;;;;;;;5071852;28;20450;-75
2022/09/13 09:36:45;;;;;;;6.43;5.83;;;;;;;;;;5085224;28;20416;-75
2022/09/13 09:39:13;;;;;;;6.37;5.87;;;;;;;;;;5070555;28;20437;-76
2022/09/13 09:41:39;;;;;;;6.23;5.70;;;;;;;;;;5070256;28;20449;-75
2022/09/13 09:44:22;;;;;;;7.27;6.57;;;;;;;;;;5070368;28;21134;-75
2022/09/13 09:46:50;;;;;;;6.47;5.87;;;;;;;;;;5071539;28;20409;-75
2022/09/13 09:52:11;;;;;;;6.17;5.23;;;;;;;;;;5060209;28;20462;-75
2022/09/13 09:54:40;;;;;;;6.70;6.20;;;;;;;;;;5070151;28;20440;-75
2022/09/13 09:57:07;;;;;;;5.67;5.17;;;;;;;;;;5070142;28;20986;-75
2022/09/13 09:59:34;;;;;;;6.67;5.80;;;;;;;;;;5071472;28;20420;-75
2022/09/13 10:02:13;;;;;;;5.93;5.20;;;;;;;;;;5072302;28;20990;-75
2022/09/13 10:04:39;;;;;;;5.57;5.17;;;;;;;;;;5055856;28;20483;-75
2022/09/13 10:07:07;;;;;;;6.60;6.00;;;;;;;;;;5068961;28;20444;-75
2022/09/13 10:09:52;;;;;;;6.83;6.13;;;;;;;;;;5070171;28;20513;-75
2022/09/13 10:12:25;;;;;;;6.30;5.80;;;;;;;;;;5053395;28;20642;-75
2022/09/13 10:15:01;;;;;;;5.77;5.23;;;;;;;;;;5070048;28;20428;-75
2022/09/13 10:17:28;;;;;;;12.30;5.23;;;;;;;;;;5074058;28;20864;-75
2022/09/13 10:20:13;;;;;;;6.97;6.37;;;;;;;;;;5056788;28;20500;-75
2022/09/13 10:22:41;;;;;;;6.07;5.47;;;;;;;;;;5053244;28;20895;-75
2022/09/13 10:25:11;;;;;;;5.70;5.20;;;;;;;;;;5049957;28;20465;-75
2022/09/13 10:27:41;;;;;;;6.37;5.77;;;;;;;;;;5060683;28;20467;-75
2022/09/13 10:30:25;;;;;;;7.63;5.20;;;;;;;;;;5070075;28;20427;-75
2022/09/13 10:32:55;;;;;;;6.27;5.77;;;;;;;;;;5084860;28;20772;-75
2022/09/13 10:35:22;;;;;;;5.90;5.40;;;;;;;;;;5069834;28;20775;-75
2022/09/13 10:37:50;;;;;;;5.40;4.93;;;;;;;;;;5051045;28;20448;-75
2022/09/13 10:40:27;;;;;;;6.90;4.90;;;;;;;;;;5049750;28;20454;-75
2022/09/13 10:42:56;;;;;;;5.30;4.90;;;;;;;;;;5052866;28;20451;-76
2022/09/13 10:45:23;;;;;;;5.17;4.77;;;;;;;;;;5069633;28;20456;-75
2022/09/13 10:47:51;;;;;;;6.00;5.50;;;;;;;;;;5053026;28;20436;-75
2022/09/13 10:50:22;;;;;;;6.00;5.50;;;;;;;;;;5080044;28;20456;-75
2022/09/13 10:52:48;;;;;;;5.43;4.70;;;;;;;;;;5072405;28;20433;-75
2022/09/13 10:55:18;;;;;;;5.40;4.90;;;;;;;;;;5071292;28;20426;-75
2022/09/13 10:57:46;;;;;;;7.10;5.10;;;;;;;;;;5071519;28;20428;-75
2022/09/13 11:00:19;;;;;;;5.07;4.57;;;;;;;;;;5082385;28;20899;-74
2022/09/13 11:02:45;;;;;;;4.80;4.40;;;;;;;;;;5087826;28;20498;-75
2022/09/13 11:05:31;;;;;;;5.83;5.17;;;;;;;;;;5075351;28;20459;-75
2022/09/13 11:08:04;;;;;;;5.37;4.97;;;;;;;;;;5073214;28;20527;-75
2022/09/13 11:10:30;;;;;;;5.03;4.73;;;;;;;;;;5090643;28;20455;-76
2022/09/13 11:12:57;;;;;;;4.67;4.23;;;;;;;;;;5093352;28;20440;-76
2022/09/13 11:15:42;;;;;;;5.17;4.77;;;;;;;;;;5076414;28;20430;-74
2022/09/13 11:18:14;;;;;;;5.23;4.83;;;;;;;;;;5074195;28;20954;-74
2022/09/13 11:20:46;;;;;;;4.63;4.30;;;;;;;;;;5074020;28;20467;-75
2022/09/13 11:23:32;;;;;;;5.27;4.60;;;;;;;;;;5072890;28;20544;-75
2022/09/13 11:26:10;;;;;;;4.20;3.90;;;;;;;;;;5073321;28;20464;-74
2022/09/13 11:28:58;;;;;;;5.23;4.83;;;;;;;;;;5072992;28;20510;-74
2022/09/13 11:31:43;;;;;;;5.00;4.70;;;;;;;;;;5073920;28;20436;-74
2022/09/13 11:34:12;;;;;;;5.30;4.30;;;;;;;;;;5072823;28;20431;-74
2022/09/13 11:36:39;;;;;;;3.40;3.20;;;;;;;;;;5055849;28;20440;-74
2022/09/13 11:39:08;;;;;;;4.57;4.27;;;;;;;;;;5072562;28;20428;-75
2022/09/13 11:41:35;;;;;;;4.87;4.47;;;;;;;;;;5072578;28;20455;-75
2022/09/13 11:44:10;;;;;;;6.20;4.83;;;;;;;;;;5068370;28;20447;-75
2022/09/13 11:46:40;;;;;;;4.10;3.80;;;;;;;;;;5068652;28;20829;-74
2022/09/13 11:49:17;;;;;;;4.67;4.27;;;;;;;;;;5062722;28;20444;-74
2022/09/13 11:52:10;;;;;;;4.47;3.90;;;;;;;;;;5062751;28;21030;-75
2022/09/13 11:54:36;;;;;;;5.63;4.17;;;;;;;;;;5084483;28;20961;-74
2022/09/13 11:57:10;;;;;;;3.67;3.47;;;;;;;;;;5053826;28;20437;-75
2022/09/13 11:59:59;;;;;;;7.43;4.10;;;;;;;;;;5068806;28;20420;-75
2022/09/13 12:02:42;;;;;;;4.73;4.40;;;;;;;;;;5079548;28;20498;-76
2022/09/13 12:05:09;;;;;;;5.93;4.53;;;;;;;;;;5085067;28;20455;-75
2022/09/13 12:07:58;;;;;;;4.50;4.20;;;;;;;;;;5067681;28;20419;-75
2022/09/13 12:10:34;;;;;;;5.10;4.57;;;;;;;;;;5078728;28;20462;-75
2022/09/13 12:13:02;;;;;;;6.03;4.60;;;;;;;;;;5081828;28;20788;-75
2022/09/13 12:15:33;;;;;;;4.53;4.13;;;;;;;;;;5085236;28;20420;-76
2022/09/13 12:18:04;;;;;;;4.83;4.50;;;;;;;;;;5076681;28;20806;-75
2022/09/13 12:20:31;;;;;;;6.97;4.50;;;;;;;;;;5077200;28;20467;-76
2022/09/13 12:23:00;;;;;;;5.30;4.90;;;;;;;;;;5062381;28;20470;-76
2022/09/13 12:25:52;;;;;;;4.90;4.40;;;;;;;;;;5061635;28;20459;-75
2022/09/13 12:28:26;;;;;;;5.37;4.97;;;;;;;;;;5075308;28;20539;-76
2022/09/13 12:30:56;;;;;;;5.53;5.13;;;;;;;;;;5081419;28;20467;-75
2022/09/13 12:33:24;;;;;;;10.53;5.53;;;;;;;;;;5086620;28;20491;-75
2022/09/13 12:35:51;;;;;;;5.00;4.57;;;;;;;;;;5085697;28;20477;-75
2022/09/13 12:38:28;;;;;;;5.33;4.83;;;;;;;;;;5062033;28;20961;-75
2022/09/13 12:41:10;;;;;;;5.40;5.00;;;;;;;;;;5060873;28;20467;-75
2022/09/13 12:43:43;;;;;;;6.03;4.63;;;;;;;;;;5052107;28;20437;-75
2022/09/13 12:46:14;;;;;;;5.90;4.83;;;;;;;;;;5070524;28;20470;-75
2022/09/13 12:48:44;;;;;;;5.23;4.73;;;;;;;;;;5085537;28;20436;-75
2022/09/13 12:51:29;;;;;;;10.77;5.70;;;;;;;;;;5079184;28;20479;-75
2022/09/13 12:54:08;;;;;;;5.97;5.17;;;;;;;;;;5077885;28;20823;-75
2022/09/13 12:56:44;;;;;;;6.80;5.27;;;;;;;;;;5073617;28;20444;-75
2022/09/13 12:59:10;;;;;;;5.50;5.03;;;;;;;;;;5095615;28;20441;-75
2022/09/13 13:01:37;;;;;;;5.10;4.60;;;;;;;;;;5073057;28;20504;-75
2022/09/13 13:04:14;;;;;;;20.03;5.93;;;;;;;;;;5078695;28;20473;-75
2022/09/13 13:06:47;;;;;;;5.33;4.83;;;;;;;;;;5074306;28;20467;-75
2022/09/13 13:09:32;;;;;;;6.73;5.03;;;;;;;;;;5060993;28;21050;-75
2022/09/13 13:11:58;;;;;;;7.90;5.20;;;;;;;;;;5078930;28;20456;-75
2022/09/13 13:14:37;;;;;;;5.50;4.83;;;;;;;;;;5082369;28;20469;-75
2022/09/13 13:17:22;;;;;;;6.53;4.97;;;;;;;;;;5071736;28;20439;-75
2022/09/13 13:19:49;;;;;;;5.90;5.17;;;;;;;;;;5077501;28;20839;-75
2022/09/13 13:22:34;;;;;;;5.33;4.90;;;;;;;;;;5084114;28;20808;-75
2022/09/13 13:25:20;;;;;;;5.67;5.00;;;;;;;;;;5084279;28;21011;-75
2022/09/13 13:27:50;;;;;;;5.57;5.17;;;;;;;;;;5054083;28;20443;-75
2022/09/13 13:30:35;;;;;;;5.50;5.00;;;;;;;;;;5071072;28;20460;-76
2022/09/13 13:33:12;;;;;;;5.43;5.03;;;;;;;;;;5053150;28;20444;-76
2022/09/13 13:35:38;;;;;;;7.43;4.73;;;;;;;;;;5070918;28;20504;-75
2022/09/13 13:38:31;;;;;;;5.60;5.20;;;;;;;;;;5057049;28;20429;-75
2022/09/13 13:41:05;;;;;;;5.00;4.60;;;;;;;;;;5021477;28;20452;-75
2022/09/13 13:43:38;;;;;;;4.77;4.47;;;;;;;;;;5070674;28;20415;-75
2022/09/13 13:46:10;;;;;;;4.10;3.60;;;;;;;;;;5071794;28;20529;-76
2022/09/13 13:48:38;;;;;;;4.17;3.83;;;;;;;;;;5081458;28;20475;-76
2022/09/13 13:51:11;;;;;;;4.10;3.80;;;;;;;;;;5060434;28;20551;-76
2022/09/13 13:53:38;;;;;;;3.20;3.00;;;;;;;;;;5078883;28;20472;-75
2022/09/13 13:56:17;;;;;;;4.70;3.03;;;;;;;;;;5070205;28;20450;-75
2022/09/13 13:58:46;;;;;;;3.30;3.00;;;;;;;;;;5090650;28;20424;-76
2022/09/13 14:01:15;;;;;;;3.87;3.33;;;;;;;;;;5063071;28;20449;-75
2022/09/13 14:04:08;;;;;;;4.80;4.23;;;;;;;;;;5052683;28;20425;-75
2022/09/13 14:06:38;;;;;;;9.40;5.83;;;;;;;;;;5068751;28;20464;-75
2022/09/13 14:09:04;;;;;;;19.73;14.77;;;;;;;;;;5085136;28;20437;-75
2022/09/13 14:11:31;;;;;;;18.30;14.23;;;;;;;;;;5082433;28;20566;-75
2022/09/13 14:14:06;;;;;;;17.40;11.77;;;;;;;;;;5078591;28;20411;-75
2022/09/13 14:16:45;;;;;;;10.87;8.60;;;;;;;;;;5076883;28;20471;-75
2022/09/13 14:19:31;;;;;;;5.90;4.50;;;;;;;;;;5081664;28;20443;-75
2022/09/13 14:22:16;;;;;;;4.30;3.90;;;;;;;;;;5068813;28;20441;-75
2022/09/13 14:24:45;;;;;;;4.47;3.00;;;;;;;;;;5078015;28;20435;-76
2022/09/13 14:27:16;;;;;;;3.00;2.70;;;;;;;;;;5061818;28;20455;-75
2022/09/13 14:29:44;;;;;;;4.30;3.90;;;;;;;;;;5078390;28;20431;-76
2022/09/13 14:32:13;;;;;;;12.93;3.60;;;;;;;;;;5065132;28;20531;-76
2022/09/13 14:34:48;;;;;;;4.43;3.27;;;;;;;;;;5085192;28;20416;-75
2022/09/13 14:37:17;;;;;;;3.10;2.80;;;;;;;;;;5081317;28;20498;-76
2022/09/13 14:39:54;;;;;;;6.33;4.03;;;;;;;;;;5079971;28;20431;-76
2022/09/13 14:42:20;;;;;;;3.57;3.27;;;;;;;;;;5082378;28;20432;-76
2022/09/13 14:44:47;;;;;;;3.10;2.80;;;;;;;;;;5078735;28;20926;-75
2022/09/13 14:47:13;;;;;;;2.83;2.63;;;;;;;;;;5081790;28;20460;-75
2022/09/13 14:49:43;;;;;;;4.13;3.63;;;;;;;;;;5070535;28;20424;-76
2022/09/13 14:52:19;;;;;;;3.30;2.87;;;;;;;;;;5087969;28;20446;-75
2022/09/13 14:54:50;;;;;;;3.83;2.97;;;;;;;;;;5067548;28;20415;-75
2022/09/13 14:57:22;;;;;;;3.60;2.73;;;;;;;;;;5051743;28;20440;-75
2022/09/13 14:59:51;;;;;;;3.90;3.10;;;;;;;;;;5084332;28;20472;-75
2022/09/13 15:02:20;;;;;;;4.00;2.90;;;;;;;;;;5087420;28;20462;-75
2022/09/13 15:04:51;;;;;;;3.57;2.33;;;;;;;;;;5073811;28;20436;-75
2022/09/13 15:07:21;;;;;;;2.90;2.70;;;;;;;;;;5060371;28;20520;-75